sensor_id;sensor_type;location;lat;lon;timestamp;temperature;humidity
31991;DHT22;18508;49.386;8.370;2023-01-24T00:01:21;2.70;99.90
31991;DHT22;18508;49.386;8.370;2023-01-24T00:03:54;2.70;99.90
31991;DHT22;18508;49.386;8.370;2023-01-24T00:06:23;2.70;99.90
31991;DHT22;18508;49.386;8.370;2023-01-24T00:08:56;2.80;99.90
31991;DHT22;18508;49.386;8.370;2023-01-24T00:11:24;2.80;99.90
31991;DHT22;18508;49.386;8.370;2023-01-24T00:13:52;2.90;99.90
31991;DHT22;18508;49.386;8.370;2023-01-24T00:16:21;2.80;99.90
31991;DHT22;18508;49.386;8.370;2023-01-24T00:18:50;2.80;99.90
31991;DHT22;18508;49.386;8.370;2023-01-24T00:21:20;2.80;99.90
31991;DHT22;18508;49.386;8.370;2023-01-24T00:23:50;2.70;99.90
31991;DHT22;18508;49.386;8.370;2023-01-24T00:26:20;2.80;99.90
31991;DHT22;18508;49.386;8.370;2023-01-24T00:28:49;2.60;99.90
31991;DHT22;18508;49.386;8.370;2023-01-24T00:31:18;2.80;99.90
31991;DHT22;18508;49.386;8.370;2023-01-24T00:33:47;2.70;99.90
31991;DHT22;18508;49.386;8.370;2023-01-24T00:36:15;2.70;99.90
31991;DHT22;18508;49.386;8.370;2023-01-24T00:38:43;2.70;99.90
31991;DHT22;18508;49.386;8.370;2023-01-24T00:41:12;2.70;99.90
31991;DHT22;18508;49.386;8.370;2023-01-24T00:43:41;2.60;99.90
31991;DHT22;18508;49.386;8.370;2023-01-24T00:46:09;2.70;99.90
31991;DHT22;18508;49.386;8.370;2023-01-24T00:48:38;2.70;99.90
31991;DHT22;18508;49.386;8.370;2023-01-24T00:51:06;2.90;99.90
31991;DHT22;18508;49.386;8.370;2023-01-24T00:53:34;2.70;99.90
31991;DHT22;18508;49.386;8.370;2023-01-24T00:56:03;2.70;99.90
31991;DHT22;18508;49.386;8.370;2023-01-24T00:58:32;2.70;99.90
31991;DHT22;18508;49.386;8.370;2023-01-24T01:01:02;2.70;99.90
31991;DHT22;18508;49.386;8.370;2023-01-24T01:03:30;2.70;99.90
31991;DHT22;18508;49.386;8.370;2023-01-24T01:06:00;2.70;99.90
31991;DHT22;18508;49.386;8.370;2023-01-24T01:08:29;2.70;99.90
31991;DHT22;18508;49.386;8.370;2023-01-24T01:10:58;2.70;99.90
31991;DHT22;18508;49.386;8.370;2023-01-24T01:13:27;2.70;99.90
31991;DHT22;18508;49.386;8.370;2023-01-24T01:16:02;2.70;99.90
31991;DHT22;18508;49.386;8.370;2023-01-24T01:18:32;2.90;99.90
31991;DHT22;18508;49.386;8.370;2023-01-24T01:21:02;2.70;99.90
31991;DHT22;18508;49.386;8.370;2023-01-24T01:23:30;2.70;99.90
31991;DHT22;18508;49.386;8.370;2023-01-24T01:25:59;2.80;99.90
31991;DHT22;18508;49.386;8.370;2023-01-24T01:28:29;2.70;99.90
31991;DHT22;18508;49.386;8.370;2023-01-24T01:30:58;2.70;99.90
31991;DHT22;18508;49.386;8.370;2023-01-24T01:33:31;2.70;99.90
31991;DHT22;18508;49.386;8.370;2023-01-24T01:35:59;2.80;99.90
31991;DHT22;18508;49.386;8.370;2023-01-24T01:38:29;2.80;99.90
31991;DHT22;18508;49.386;8.370;2023-01-24T01:40:57;2.70;99.90
31991;DHT22;18508;49.386;8.370;2023-01-24T01:43:27;3.10;99.90
31991;DHT22;18508;49.386;8.370;2023-01-24T01:45:58;2.80;99.90
31991;DHT22;18508;49.386;8.370;2023-01-24T01:48:34;2.80;99.90
31991;DHT22;18508;49.386;8.370;2023-01-24T01:51:09;2.80;99.90
31991;DHT22;18508;49.386;8.370;2023-01-24T01:53:43;2.80;99.90
31991;DHT22;18508;49.386;8.370;2023-01-24T01:56:21;2.80;99.90
31991;DHT22;18508;49.386;8.370;2023-01-24T01:58:51;2.80;99.90
31991;DHT22;18508;49.386;8.370;2023-01-24T02:01:20;2.80;99.90
31991;DHT22;18508;49.386;8.370;2023-01-24T02:04:00;2.80;99.90
31991;DHT22;18508;49.386;8.370;2023-01-24T02:06:43;2.80;99.90
31991;DHT22;18508;49.386;8.370;2023-01-24T02:09:14;2.70;99.90
31991;DHT22;18508;49.386;8.370;2023-01-24T02:11:45;2.80;99.90
31991;DHT22;18508;49.386;8.370;2023-01-24T02:14:17;2.80;99.90
31991;DHT22;18508;49.386;8.370;2023-01-24T02:17:04;2.80;99.90
31991;DHT22;18508;49.386;8.370;2023-01-24T02:19:45;2.80;99.90
31991;DHT22;18508;49.386;8.370;2023-01-24T02:22:19;2.80;99.90
31991;DHT22;18508;49.386;8.370;2023-01-24T02:24:59;2.70;99.90
31991;DHT22;18508;49.386;8.370;2023-01-24T02:27:31;2.80;99.90
31991;DHT22;18508;49.386;8.370;2023-01-24T02:29:59;4.60;99.90
31991;DHT22;18508;49.386;8.370;2023-01-24T02:32:27;2.80;99.90
31991;DHT22;18508;49.386;8.370;2023-01-24T02:34:58;2.90;99.90
31991;DHT22;18508;49.386;8.370;2023-01-24T02:37:26;2.90;99.90
31991;DHT22;18508;49.386;8.370;2023-01-24T02:39:59;2.90;99.90
31991;DHT22;18508;49.386;8.370;2023-01-24T02:42:33;2.80;99.90
31991;DHT22;18508;49.386;8.370;2023-01-24T02:45:07;2.80;99.90
31991;DHT22;18508;49.386;8.370;2023-01-24T02:47:40;2.80;99.90
31991;DHT22;18508;49.386;8.370;2023-01-24T02:50:10;2.80;99.90
31991;DHT22;18508;49.386;8.370;2023-01-24T02:52:38;2.80;99.90
31991;DHT22;18508;49.386;8.370;2023-01-24T02:55:25;2.90;99.90
31991;DHT22;18508;49.386;8.370;2023-01-24T02:57:58;2.90;99.90
31991;DHT22;18508;49.386;8.370;2023-01-24T03:00:37;2.90;99.90
31991;DHT22;18508;49.386;8.370;2023-01-24T03:03:07;2.90;99.90
31991;DHT22;18508;49.386;8.370;2023-01-24T03:05:36;2.90;99.90
31991;DHT22;18508;49.386;8.370;2023-01-24T03:08:24;2.90;99.90
31991;DHT22;18508;49.386;8.370;2023-01-24T03:10:53;2.80;99.90
31991;DHT22;18508;49.386;8.370;2023-01-24T03:13:24;2.80;99.90
31991;DHT22;18508;49.386;8.370;2023-01-24T03:16:11;2.80;99.90
31991;DHT22;18508;49.386;8.370;2023-01-24T03:18:57;2.80;99.90
31991;DHT22;18508;49.386;8.370;2023-01-24T03:21:43;2.80;99.90
31991;DHT22;18508;49.386;8.370;2023-01-24T03:24:29;2.80;99.90
31991;DHT22;18508;49.386;8.370;2023-01-24T03:27:15;2.80;99.90
31991;DHT22;18508;49.386;8.370;2023-01-24T03:30:02;2.70;99.90
31991;DHT22;18508;49.386;8.370;2023-01-24T03:32:48;2.80;99.90
31991;DHT22;18508;49.386;8.370;2023-01-24T03:35:34;2.50;99.90
31991;DHT22;18508;49.386;8.370;2023-01-24T03:38:02;2.80;99.90
31991;DHT22;18508;49.386;8.370;2023-01-24T03:40:51;2.90;99.90
31991;DHT22;18508;49.386;8.370;2023-01-24T03:43:19;2.90;99.90
31991;DHT22;18508;49.386;8.370;2023-01-24T03:45:52;3.10;99.90
31991;DHT22;18508;49.386;8.370;2023-01-24T03:48:21;2.90;99.90
31991;DHT22;18508;49.386;8.370;2023-01-24T03:50:53;2.90;99.90
31991;DHT22;18508;49.386;8.370;2023-01-24T03:53:39;2.80;99.90
31991;DHT22;18508;49.386;8.370;2023-01-24T03:56:08;2.70;99.90
31991;DHT22;18508;49.386;8.370;2023-01-24T03:58:38;3.30;99.90
31991;DHT22;18508;49.386;8.370;2023-01-24T04:01:09;2.80;99.90
31991;DHT22;18508;49.386;8.370;2023-01-24T04:03:37;2.80;99.90
31991;DHT22;18508;49.386;8.370;2023-01-24T04:06:06;2.80;99.90
31991;DHT22;18508;49.386;8.370;2023-01-24T04:08:34;2.80;99.90
31991;DHT22;18508;49.386;8.370;2023-01-24T04:11:02;2.80;99.90
31991;DHT22;18508;49.386;8.370;2023-01-24T04:13:30;2.80;99.90
31991;DHT22;18508;49.386;8.370;2023-01-24T04:15:58;2.90;99.90
31991;DHT22;18508;49.386;8.370;2023-01-24T04:18:28;2.90;99.90
31991;DHT22;18508;49.386;8.370;2023-01-24T04:21:00;2.90;99.90
31991;DHT22;18508;49.386;8.370;2023-01-24T04:23:28;2.80;99.90
31991;DHT22;18508;49.386;8.370;2023-01-24T04:25:58;2.90;99.90
31991;DHT22;18508;49.386;8.370;2023-01-24T04:28:27;2.90;99.90
31991;DHT22;18508;49.386;8.370;2023-01-24T04:30:57;2.90;99.90
31991;DHT22;18508;49.386;8.370;2023-01-24T04:33:27;2.90;99.90
31991;DHT22;18508;49.386;8.370;2023-01-24T04:35:56;2.90;99.90
31991;DHT22;18508;49.386;8.370;2023-01-24T04:38:25;2.90;99.90
31991;DHT22;18508;49.386;8.370;2023-01-24T04:40:57;2.90;99.90
31991;DHT22;18508;49.386;8.370;2023-01-24T04:43:26;3.10;99.90
31991;DHT22;18508;49.386;8.370;2023-01-24T04:45:58;2.90;99.90
31991;DHT22;18508;49.386;8.370;2023-01-24T04:48:28;2.90;99.90
31991;DHT22;18508;49.386;8.370;2023-01-24T04:51:00;2.90;99.90
31991;DHT22;18508;49.386;8.370;2023-01-24T04:53:29;2.90;99.90
31991;DHT22;18508;49.386;8.370;2023-01-24T04:56:00;2.90;99.90
31991;DHT22;18508;49.386;8.370;2023-01-24T04:58:28;2.90;99.90
31991;DHT22;18508;49.386;8.370;2023-01-24T05:00:57;2.90;99.90
31991;DHT22;18508;49.386;8.370;2023-01-24T05:03:28;2.90;99.90
31991;DHT22;18508;49.386;8.370;2023-01-24T05:05:58;2.90;99.90
31991;DHT22;18508;49.386;8.370;2023-01-24T05:08:26;3.80;99.90
31991;DHT22;18508;49.386;8.370;2023-01-24T05:10:55;2.90;99.90
31991;DHT22;18508;49.386;8.370;2023-01-24T05:13:23;2.90;99.90
31991;DHT22;18508;49.386;8.370;2023-01-24T05:15:51;2.90;99.90
31991;DHT22;18508;49.386;8.370;2023-01-24T05:18:19;2.80;99.90
31991;DHT22;18508;49.386;8.370;2023-01-24T05:20:49;2.90;99.90
31991;DHT22;18508;49.386;8.370;2023-01-24T05:23:18;2.90;99.90
31991;DHT22;18508;49.386;8.370;2023-01-24T05:25:46;2.90;99.90
31991;DHT22;18508;49.386;8.370;2023-01-24T05:28:14;2.70;99.90
31991;DHT22;18508;49.386;8.370;2023-01-24T05:30:43;3.30;99.90
31991;DHT22;18508;49.386;8.370;2023-01-24T05:33:11;2.90;99.90
31991;DHT22;18508;49.386;8.370;2023-01-24T05:35:40;2.90;99.90
31991;DHT22;18508;49.386;8.370;2023-01-24T05:38:11;2.90;99.90
31991;DHT22;18508;49.386;8.370;2023-01-24T05:40:40;2.90;99.90
31991;DHT22;18508;49.386;8.370;2023-01-24T05:43:08;2.90;99.90
31991;DHT22;18508;49.386;8.370;2023-01-24T05:45:39;2.90;99.90
31991;DHT22;18508;49.386;8.370;2023-01-24T05:48:08;2.90;99.90
31991;DHT22;18508;49.386;8.370;2023-01-24T05:50:36;2.90;99.90
31991;DHT22;18508;49.386;8.370;2023-01-24T05:53:07;2.90;99.90
31991;DHT22;18508;49.386;8.370;2023-01-24T05:55:36;2.90;99.90
31991;DHT22;18508;49.386;8.370;2023-01-24T05:58:06;2.90;99.90
31991;DHT22;18508;49.386;8.370;2023-01-24T06:00:33;2.90;99.90
31991;DHT22;18508;49.386;8.370;2023-01-24T06:03:04;2.80;99.90
31991;DHT22;18508;49.386;8.370;2023-01-24T06:05:32;2.90;99.90
31991;DHT22;18508;49.386;8.370;2023-01-24T06:08:00;2.70;99.90
31991;DHT22;18508;49.386;8.370;2023-01-24T06:10:29;2.90;99.90
31991;DHT22;18508;49.386;8.370;2023-01-24T06:13:00;2.90;99.90
31991;DHT22;18508;49.386;8.370;2023-01-24T06:15:28;2.90;99.90
31991;DHT22;18508;49.386;8.370;2023-01-24T06:17:58;2.90;99.90
31991;DHT22;18508;49.386;8.370;2023-01-24T06:20:29;2.90;99.90
31991;DHT22;18508;49.386;8.370;2023-01-24T06:23:03;2.90;99.90
31991;DHT22;18508;49.386;8.370;2023-01-24T06:25:33;2.90;99.90
31991;DHT22;18508;49.386;8.370;2023-01-24T06:28:03;2.90;99.90
31991;DHT22;18508;49.386;8.370;2023-01-24T06:30:32;2.90;99.90
31991;DHT22;18508;49.386;8.370;2023-01-24T06:33:10;2.90;99.90
31991;DHT22;18508;49.386;8.370;2023-01-24T06:35:50;2.90;99.90
31991;DHT22;18508;49.386;8.370;2023-01-24T06:38:24;2.70;99.90
31991;DHT22;18508;49.386;8.370;2023-01-24T06:40:56;2.90;99.90
31991;DHT22;18508;49.386;8.370;2023-01-24T06:43:27;2.80;99.90
31991;DHT22;18508;49.386;8.370;2023-01-24T06:45:56;2.90;99.90
31991;DHT22;18508;49.386;8.370;2023-01-24T06:48:25;2.90;99.90
31991;DHT22;18508;49.386;8.370;2023-01-24T06:50:53;3.00;99.90
31991;DHT22;18508;49.386;8.370;2023-01-24T06:53:21;2.90;99.90
31991;DHT22;18508;49.386;8.370;2023-01-24T06:55:49;2.80;99.90
31991;DHT22;18508;49.386;8.370;2023-01-24T06:58:18;2.90;99.90
31991;DHT22;18508;49.386;8.370;2023-01-24T07:00:48;3.80;99.90
31991;DHT22;18508;49.386;8.370;2023-01-24T07:03:16;2.90;99.90
31991;DHT22;18508;49.386;8.370;2023-01-24T07:05:47;2.90;99.90
31991;DHT22;18508;49.386;8.370;2023-01-24T07:08:15;3.30;99.90
31991;DHT22;18508;49.386;8.370;2023-01-24T07:10:48;2.90;99.90
31991;DHT22;18508;49.386;8.370;2023-01-24T07:13:16;2.90;99.90
31991;DHT22;18508;49.386;8.370;2023-01-24T07:15:44;3.00;99.90
31991;DHT22;18508;49.386;8.370;2023-01-24T07:18:16;2.80;99.90
31991;DHT22;18508;49.386;8.370;2023-01-24T07:20:45;2.90;99.90
31991;DHT22;18508;49.386;8.370;2023-01-24T07:23:19;2.90;99.90
31991;DHT22;18508;49.386;8.370;2023-01-24T07:25:50;2.90;99.90
31991;DHT22;18508;49.386;8.370;2023-01-24T07:28:20;2.90;99.90
31991;DHT22;18508;49.386;8.370;2023-01-24T07:30:49;2.90;99.90
31991;DHT22;18508;49.386;8.370;2023-01-24T07:33:20;2.70;99.90
31991;DHT22;18508;49.386;8.370;2023-01-24T07:35:48;3.00;99.90
31991;DHT22;18508;49.386;8.370;2023-01-24T07:38:18;2.60;99.90
31991;DHT22;18508;49.386;8.370;2023-01-24T07:40:46;2.90;99.90
31991;DHT22;18508;49.386;8.370;2023-01-24T07:43:15;2.80;99.90
31991;DHT22;18508;49.386;8.370;2023-01-24T07:45:47;3.00;99.90
31991;DHT22;18508;49.386;8.370;2023-01-24T07:48:20;0.70;99.90
31991;DHT22;18508;49.386;8.370;2023-01-24T07:50:49;3.20;99.90
31991;DHT22;18508;49.386;8.370;2023-01-24T07:53:18;3.00;99.90
31991;DHT22;18508;49.386;8.370;2023-01-24T07:55:48;3.00;99.90
31991;DHT22;18508;49.386;8.370;2023-01-24T07:58:28;3.00;99.90
31991;DHT22;18508;49.386;8.370;2023-01-24T08:00:57;3.00;99.90
31991;DHT22;18508;49.386;8.370;2023-01-24T08:03:29;3.00;99.90
31991;DHT22;18508;49.386;8.370;2023-01-24T08:05:57;2.60;99.90
31991;DHT22;18508;49.386;8.370;2023-01-24T08:08:26;3.00;99.90
31991;DHT22;18508;49.386;8.370;2023-01-24T08:13:28;3.00;99.90
31991;DHT22;18508;49.386;8.370;2023-01-24T08:15:56;3.20;99.90
31991;DHT22;18508;49.386;8.370;2023-01-24T08:18:25;3.00;99.90
31991;DHT22;18508;49.386;8.370;2023-01-24T08:20:56;3.00;99.90
31991;DHT22;18508;49.386;8.370;2023-01-24T08:23:25;3.10;99.90
31991;DHT22;18508;49.386;8.370;2023-01-24T08:25:53;3.10;99.90
31991;DHT22;18508;49.386;8.370;2023-01-24T08:28:22;3.20;99.90
31991;DHT22;18508;49.386;8.370;2023-01-24T08:30:51;3.20;99.90
31991;DHT22;18508;49.386;8.370;2023-01-24T08:33:20;3.20;99.90
31991;DHT22;18508;49.386;8.370;2023-01-24T08:35:48;3.20;99.90
31991;DHT22;18508;49.386;8.370;2023-01-24T08:38:18;3.30;99.90
31991;DHT22;18508;49.386;8.370;2023-01-24T08:40:46;3.30;99.90
31991;DHT22;18508;49.386;8.370;2023-01-24T08:43:16;3.20;99.90
31991;DHT22;18508;49.386;8.370;2023-01-24T08:45:45;3.30;99.90
31991;DHT22;18508;49.386;8.370;2023-01-24T08:48:13;3.20;99.90
31991;DHT22;18508;49.386;8.370;2023-01-24T08:50:41;3.30;99.90
31991;DHT22;18508;49.386;8.370;2023-01-24T08:53:11;3.30;99.90
31991;DHT22;18508;49.386;8.370;2023-01-24T08:55:43;3.40;99.90
31991;DHT22;18508;49.386;8.370;2023-01-24T08:58:12;3.40;99.90
31991;DHT22;18508;49.386;8.370;2023-01-24T09:00:40;3.40;99.90
31991;DHT22;18508;49.386;8.370;2023-01-24T09:03:09;3.40;99.90
31991;DHT22;18508;49.386;8.370;2023-01-24T09:05:38;3.30;99.90
31991;DHT22;18508;49.386;8.370;2023-01-24T09:08:06;3.30;99.90
31991;DHT22;18508;49.386;8.370;2023-01-24T09:10:35;3.40;99.90
31991;DHT22;18508;49.386;8.370;2023-01-24T09:13:08;3.60;99.90
31991;DHT22;18508;49.386;8.370;2023-01-24T09:15:36;3.40;99.90
31991;DHT22;18508;49.386;8.370;2023-01-24T09:18:04;3.30;99.90
31991;DHT22;18508;49.386;8.370;2023-01-24T09:20:33;3.50;99.90
31991;DHT22;18508;49.386;8.370;2023-01-24T09:23:08;3.70;99.90
31991;DHT22;18508;49.386;8.370;2023-01-24T09:25:36;3.50;99.90
31991;DHT22;18508;49.386;8.370;2023-01-24T09:28:05;3.50;99.90
31991;DHT22;18508;49.386;8.370;2023-01-24T09:30:35;3.60;99.90
31991;DHT22;18508;49.386;8.370;2023-01-24T09:33:04;3.50;99.90
31991;DHT22;18508;49.386;8.370;2023-01-24T09:35:33;3.60;99.90
31991;DHT22;18508;49.386;8.370;2023-01-24T09:38:01;3.60;99.90
31991;DHT22;18508;49.386;8.370;2023-01-24T09:40:41;3.70;99.90
31991;DHT22;18508;49.386;8.370;2023-01-24T09:43:20;3.60;99.90
31991;DHT22;18508;49.386;8.370;2023-01-24T09:46:00;3.70;99.90
31991;DHT22;18508;49.386;8.370;2023-01-24T09:48:33;3.80;99.90
31991;DHT22;18508;49.386;8.370;2023-01-24T09:51:05;3.80;99.90
31991;DHT22;18508;49.386;8.370;2023-01-24T09:53:40;3.80;99.90
31991;DHT22;18508;49.386;8.370;2023-01-24T09:56:21;3.80;99.90
31991;DHT22;18508;49.386;8.370;2023-01-24T09:59:05;3.70;99.90
31991;DHT22;18508;49.386;8.370;2023-01-24T10:01:42;3.70;99.90
31991;DHT22;18508;49.386;8.370;2023-01-24T10:04:17;3.80;99.90
31991;DHT22;18508;49.386;8.370;2023-01-24T10:06:58;3.80;99.90
31991;DHT22;18508;49.386;8.370;2023-01-24T10:09:39;3.80;99.90
31991;DHT22;18508;49.386;8.370;2023-01-24T10:12:24;3.70;99.90
31991;DHT22;18508;49.386;8.370;2023-01-24T10:15:09;3.70;99.90
31991;DHT22;18508;49.386;8.370;2023-01-24T10:18:11;3.70;99.90
31991;DHT22;18508;49.386;8.370;2023-01-24T10:20:50;3.80;99.90
31991;DHT22;18508;49.386;8.370;2023-01-24T10:23:23;3.80;99.90
31991;DHT22;18508;49.386;8.370;2023-01-24T10:25:53;3.90;99.90
31991;DHT22;18508;49.386;8.370;2023-01-24T10:28:26;3.90;99.90
31991;DHT22;18508;49.386;8.370;2023-01-24T10:31:03;3.80;99.90
31991;DHT22;18508;49.386;8.370;2023-01-24T10:33:37;3.80;99.90
31991;DHT22;18508;49.386;8.370;2023-01-24T10:36:11;3.90;99.90
31991;DHT22;18508;49.386;8.370;2023-01-24T10:38:41;3.90;99.90
31991;DHT22;18508;49.386;8.370;2023-01-24T10:41:18;3.90;99.90
31991;DHT22;18508;49.386;8.370;2023-01-24T10:43:54;3.80;99.90
31991;DHT22;18508;49.386;8.370;2023-01-24T10:49:28;3.90;99.90
31991;DHT22;18508;49.386;8.370;2023-01-24T10:52:13;3.90;99.90
31991;DHT22;18508;49.386;8.370;2023-01-24T10:54:46;3.90;99.90
31991;DHT22;18508;49.386;8.370;2023-01-24T10:57:33;3.90;99.90
31991;DHT22;18508;49.386;8.370;2023-01-24T11:02:53;3.90;99.90
31991;DHT22;18508;49.386;8.370;2023-01-24T11:05:25;3.90;99.90
31991;DHT22;18508;49.386;8.370;2023-01-24T11:07:58;3.90;99.90
31991;DHT22;18508;49.386;8.370;2023-01-24T11:10:30;4.00;99.90
31991;DHT22;18508;49.386;8.370;2023-01-24T11:13:01;4.00;99.90
31991;DHT22;18508;49.386;8.370;2023-01-24T11:15:32;4.00;99.90
31991;DHT22;18508;49.386;8.370;2023-01-24T11:18:07;4.10;99.90
31991;DHT22;18508;49.386;8.370;2023-01-24T11:20:41;4.00;99.90
31991;DHT22;18508;49.386;8.370;2023-01-24T11:23:14;4.00;99.90
31991;DHT22;18508;49.386;8.370;2023-01-24T11:25:53;4.00;99.90
31991;DHT22;18508;49.386;8.370;2023-01-24T11:28:23;3.90;99.90
31991;DHT22;18508;49.386;8.370;2023-01-24T11:30:52;3.90;99.90
31991;DHT22;18508;49.386;8.370;2023-01-24T11:33:38;3.90;99.90
31991;DHT22;18508;49.386;8.370;2023-01-24T11:36:21;4.00;99.90
31991;DHT22;18508;49.386;8.370;2023-01-24T11:38:54;4.00;99.90
31991;DHT22;18508;49.386;8.370;2023-01-24T11:41:31;4.10;99.90
31991;DHT22;18508;49.386;8.370;2023-01-24T11:44:41;4.00;99.90
31991;DHT22;18508;49.386;8.370;2023-01-24T11:47:17;4.10;99.90
31991;DHT22;18508;49.386;8.370;2023-01-24T11:50:00;4.00;99.90
31991;DHT22;18508;49.386;8.370;2023-01-24T11:52:47;4.00;99.90
31991;DHT22;18508;49.386;8.370;2023-01-24T11:55:27;4.00;99.90
31991;DHT22;18508;49.386;8.370;2023-01-24T11:58:13;4.00;99.90
31991;DHT22;18508;49.386;8.370;2023-01-24T12:00:50;4.00;99.90
31991;DHT22;18508;49.386;8.370;2023-01-24T12:03:39;4.00;99.90
31991;DHT22;18508;49.386;8.370;2023-01-24T12:06:19;4.00;99.90
31991;DHT22;18508;49.386;8.370;2023-01-24T12:09:03;4.00;99.90
31991;DHT22;18508;49.386;8.370;2023-01-24T12:11:38;4.00;99.90
31991;DHT22;18508;49.386;8.370;2023-01-24T12:17:10;4.90;99.90
31991;DHT22;18508;49.386;8.370;2023-01-24T12:19:58;4.10;99.90
31991;DHT22;18508;49.386;8.370;2023-01-24T12:22:30;4.10;99.90
31991;DHT22;18508;49.386;8.370;2023-01-24T12:25:03;4.10;99.90
31991;DHT22;18508;49.386;8.370;2023-01-24T12:27:35;4.10;99.90
31991;DHT22;18508;49.386;8.370;2023-01-24T12:30:13;4.20;99.90
31991;DHT22;18508;49.386;8.370;2023-01-24T12:32:46;4.10;99.90
31991;DHT22;18508;49.386;8.370;2023-01-24T12:35:21;4.10;99.90
31991;DHT22;18508;49.386;8.370;2023-01-24T12:37:57;4.10;99.90
31991;DHT22;18508;49.386;8.370;2023-01-24T12:40:48;4.00;99.90
31991;DHT22;18508;49.386;8.370;2023-01-24T12:43:30;4.00;99.90
31991;DHT22;18508;49.386;8.370;2023-01-24T12:46:08;4.00;99.90
31991;DHT22;18508;49.386;8.370;2023-01-24T12:48:46;3.70;99.90
31991;DHT22;18508;49.386;8.370;2023-01-24T12:51:19;4.00;99.90
31991;DHT22;18508;49.386;8.370;2023-01-24T12:56:44;4.20;99.90
31991;DHT22;18508;49.386;8.370;2023-01-24T12:59:19;4.00;99.90
31991;DHT22;18508;49.386;8.370;2023-01-24T13:02:19;4.00;99.90
31991;DHT22;18508;49.386;8.370;2023-01-24T13:05:05;4.00;99.90
31991;DHT22;18508;49.386;8.370;2023-01-24T13:07:46;4.00;99.90
31991;DHT22;18508;49.386;8.370;2023-01-24T13:10:21;4.10;99.90
31991;DHT22;18508;49.386;8.370;2023-01-24T13:12:53;4.30;99.90
31991;DHT22;18508;49.386;8.370;2023-01-24T13:15:25;4.10;99.90
31991;DHT22;18508;49.386;8.370;2023-01-24T13:18:11;4.10;99.90
31991;DHT22;18508;49.386;8.370;2023-01-24T13:21:00;4.10;99.90
31991;DHT22;18508;49.386;8.370;2023-01-24T13:23:43;3.90;99.90
31991;DHT22;18508;49.386;8.370;2023-01-24T13:26:40;4.20;99.90
31991;DHT22;18508;49.386;8.370;2023-01-24T13:29:37;4.10;99.90
31991;DHT22;18508;49.386;8.370;2023-01-24T13:32:10;4.00;99.90
31991;DHT22;18508;49.386;8.370;2023-01-24T13:34:44;3.80;99.90
31991;DHT22;18508;49.386;8.370;2023-01-24T13:37:20;4.10;99.90
31991;DHT22;18508;49.386;8.370;2023-01-24T13:39:59;4.00;99.90
31991;DHT22;18508;49.386;8.370;2023-01-24T13:42:33;4.00;99.90
31991;DHT22;18508;49.386;8.370;2023-01-24T13:51:32;3.90;99.90
31991;DHT22;18508;49.386;8.370;2023-01-24T13:54:02;3.80;99.90
31991;DHT22;18508;49.386;8.370;2023-01-24T13:56:31;3.80;99.90
31991;DHT22;18508;49.386;8.370;2023-01-24T13:59:01;3.90;99.90
31991;DHT22;18508;49.386;8.370;2023-01-24T14:01:30;3.80;99.90
31991;DHT22;18508;49.386;8.370;2023-01-24T14:03:59;3.80;99.90
31991;DHT22;18508;49.386;8.370;2023-01-24T14:06:41;3.80;99.90
31991;DHT22;18508;49.386;8.370;2023-01-24T14:09:25;3.80;99.90
31991;DHT22;18508;49.386;8.370;2023-01-24T14:12:01;3.80;99.90
31991;DHT22;18508;49.386;8.370;2023-01-24T14:14:34;3.80;99.90
31991;DHT22;18508;49.386;8.370;2023-01-24T14:17:27;3.80;99.90
31991;DHT22;18508;49.386;8.370;2023-01-24T14:19:57;3.70;99.90
31991;DHT22;18508;49.386;8.370;2023-01-24T14:22:36;3.80;99.90
31991;DHT22;18508;49.386;8.370;2023-01-24T14:25:25;3.90;99.90
31991;DHT22;18508;49.386;8.370;2023-01-24T14:27:59;3.70;99.90
31991;DHT22;18508;49.386;8.370;2023-01-24T14:30:34;3.90;99.90
31991;DHT22;18508;49.386;8.370;2023-01-24T14:33:13;4.10;99.90
31991;DHT22;18508;49.386;8.370;2023-01-24T14:35:53;4.10;99.90
31991;DHT22;18508;49.386;8.370;2023-01-24T14:38:25;3.90;99.90
31991;DHT22;18508;49.386;8.370;2023-01-24T14:40:54;3.80;99.90
31991;DHT22;18508;49.386;8.370;2023-01-24T14:43:26;3.90;99.90
31991;DHT22;18508;49.386;8.370;2023-01-24T14:46:09;3.80;99.90
31991;DHT22;18508;49.386;8.370;2023-01-24T14:48:37;3.80;99.90
31991;DHT22;18508;49.386;8.370;2023-01-24T14:51:11;3.90;99.90
31991;DHT22;18508;49.386;8.370;2023-01-24T14:53:48;3.80;99.90
31991;DHT22;18508;49.386;8.370;2023-01-24T14:56:20;3.70;99.90
31991;DHT22;18508;49.386;8.370;2023-01-24T14:58:50;3.60;99.90
31991;DHT22;18508;49.386;8.370;2023-01-24T15:01:30;3.60;99.90
31991;DHT22;18508;49.386;8.370;2023-01-24T15:04:01;4.10;99.90
31991;DHT22;18508;49.386;8.370;2023-01-24T15:06:31;3.60;99.90
31991;DHT22;18508;49.386;8.370;2023-01-24T15:09:03;3.70;99.90
31991;DHT22;18508;49.386;8.370;2023-01-24T15:11:33;3.60;99.90
31991;DHT22;18508;49.386;8.370;2023-01-24T15:14:06;3.60;99.90
31991;DHT22;18508;49.386;8.370;2023-01-24T15:16:48;3.60;99.90
31991;DHT22;18508;49.386;8.370;2023-01-24T15:19:20;3.50;99.90
31991;DHT22;18508;49.386;8.370;2023-01-24T15:21:50;3.50;99.90
31991;DHT22;18508;49.386;8.370;2023-01-24T15:24:23;3.50;99.90
31991;DHT22;18508;49.386;8.370;2023-01-24T15:26:53;3.50;99.90
31991;DHT22;18508;49.386;8.370;2023-01-24T15:29:46;3.60;99.90
31991;DHT22;18508;49.386;8.370;2023-01-24T15:32:30;3.50;99.90
31991;DHT22;18508;49.386;8.370;2023-01-24T15:38:22;3.50;99.90
31991;DHT22;18508;49.386;8.370;2023-01-24T15:41:13;3.50;99.90
31991;DHT22;18508;49.386;8.370;2023-01-24T15:43:48;3.50;99.90
31991;DHT22;18508;49.386;8.370;2023-01-24T15:46:22;3.50;99.90
31991;DHT22;18508;49.386;8.370;2023-01-24T15:49:24;3.40;99.90
31991;DHT22;18508;49.386;8.370;2023-01-24T15:52:29;3.40;99.90
31991;DHT22;18508;49.386;8.370;2023-01-24T15:54:58;3.40;99.90
31991;DHT22;18508;49.386;8.370;2023-01-24T15:57:30;3.40;99.90
31991;DHT22;18508;49.386;8.370;2023-01-24T16:00:02;3.40;99.90
31991;DHT22;18508;49.386;8.370;2023-01-24T16:02:31;3.50;99.90
31991;DHT22;18508;49.386;8.370;2023-01-24T16:05:00;3.40;99.90
31991;DHT22;18508;49.386;8.370;2023-01-24T16:07:29;3.40;99.90
31991;DHT22;18508;49.386;8.370;2023-01-24T16:09:57;3.40;99.90
31991;DHT22;18508;49.386;8.370;2023-01-24T16:12:28;3.40;99.90
31991;DHT22;18508;49.386;8.370;2023-01-24T16:14:59;3.40;99.90
31991;DHT22;18508;49.386;8.370;2023-01-24T16:17:35;3.40;99.90
31991;DHT22;18508;49.386;8.370;2023-01-24T16:20:16;3.40;99.90
31991;DHT22;18508;49.386;8.370;2023-01-24T16:22:44;3.40;99.90
31991;DHT22;18508;49.386;8.370;2023-01-24T16:25:15;3.30;99.90
31991;DHT22;18508;49.386;8.370;2023-01-24T16:27:45;3.30;99.90
31991;DHT22;18508;49.386;8.370;2023-01-24T16:30:17;3.40;99.90
31991;DHT22;18508;49.386;8.370;2023-01-24T16:32:49;3.40;99.90
31991;DHT22;18508;49.386;8.370;2023-01-24T16:35:17;3.40;99.90
31991;DHT22;18508;49.386;8.370;2023-01-24T16:37:46;3.40;99.90
31991;DHT22;18508;49.386;8.370;2023-01-24T16:40:16;3.40;99.90
31991;DHT22;18508;49.386;8.370;2023-01-24T16:42:46;3.30;99.90
31991;DHT22;18508;49.386;8.370;2023-01-24T16:45:18;3.30;99.90
31991;DHT22;18508;49.386;8.370;2023-01-24T16:47:49;3.30;99.90